Time;durP1;ratioP1;P1;durP2;ratioP2;P2;SDS_P1;SDS_P2;PMS_P1;PMS_P2;Temp;Humidity;BMP_temperature;BMP_pressure;BME280_temperature;BME280_humidity;BME280_pressure;Samples;Min_cycle;Max_cycle;Signal;HPM_P1;HPM_P2
2022/04/08 00:01:53;;;;;;;10.30;4.47;;;;;;;14.39;61.28;98241.19;5054370;28;20017;-47
2022/04/08 00:04:19;;;;;;;9.65;3.97;;;;;;;14.23;61.40;98238.47;5054316;28;20502;-47
2022/04/08 00:06:44;;;;;;;9.48;3.75;;;;;;;14.41;60.58;98242.56;5053633;28;20430;-47
2022/04/08 00:09:10;;;;;;;5.95;3.53;;;;;;;14.55;60.88;98239.38;5053970;28;20029;-47
2022/04/08 00:11:38;;;;;;;6.50;3.53;;;;;;;14.40;60.49;98224.88;5054240;28;20029;-47
2022/04/08 00:14:04;;;;;;;7.32;3.53;;;;;;;14.09;61.75;98248.09;5053992;28;20021;-47
2022/04/08 00:16:30;;;;;;;6.45;3.40;;;;;;;14.51;60.19;98252.47;5053554;28;20051;-47
2022/04/08 00:18:56;;;;;;;7.78;3.42;;;;;;;14.26;60.93;98250.53;5053964;28;20021;-48
2022/04/08 00:21:25;;;;;;;6.32;3.20;;;;;;;14.06;61.69;98254.75;5053905;28;20033;-47
2022/04/08 00:23:51;;;;;;;7.10;3.30;;;;;;;14.14;61.84;98242.72;5053806;28;20021;-47
2022/04/08 00:26:16;;;;;;;8.13;3.65;;;;;;;14.14;61.71;98245.41;5053584;28;20036;-50
2022/04/08 00:28:42;;;;;;;5.75;3.22;;;;;;;13.75;62.97;98245.81;5053681;28;20025;-49
2022/04/08 00:31:07;;;;;;;6.45;3.28;;;;;;;13.76;62.96;98244.72;5053667;28;20085;-50
2022/04/08 00:33:33;;;;;;;4.63;3.10;;;;;;;13.79;62.73;98243.41;5053696;28;20078;-49
2022/04/08 00:35:58;;;;;;;7.32;3.20;;;;;;;13.52;63.59;98236.34;5053561;28;20039;-51
2022/04/08 00:38:24;;;;;;;5.22;3.08;;;;;;;13.68;63.28;98251.38;5053195;28;20028;-49
2022/04/08 00:40:49;;;;;;;8.40;3.30;;;;;;;13.72;63.47;98258.88;5053724;28;20078;-49
2022/04/08 00:43:16;;;;;;;6.32;3.00;;;;;;;13.72;63.38;98250.88;5053368;28;20025;-50
2022/04/08 00:45:43;;;;;;;5.28;3.13;;;;;;;13.82;62.58;98253.56;5052710;28;20029;-48
2022/04/08 00:48:09;;;;;;;8.75;3.10;;;;;;;13.68;62.58;98246.03;5053200;28;20039;-49
2022/04/08 00:50:40;;;;;;;5.43;3.28;;;;;;;13.58;63.09;98272.72;5053606;28;20028;-51
2022/04/08 00:53:06;;;;;;;7.53;3.35;;;;;;;13.42;63.75;98263.81;5053236;28;20068;-49
2022/04/08 00:55:36;;;;;;;7.45;3.38;;;;;;;13.61;62.63;98282.91;5053378;28;20057;-48
2022/04/08 00:58:03;;;;;;;8.52;3.88;;;;;;;13.77;62.26;98281.09;5053114;28;20029;-50
2022/04/08 01:00:32;;;;;;;8.48;3.88;;;;;;;13.89;61.80;98288.91;5053233;28;20060;-50
2022/04/08 01:02:58;;;;;;;8.00;3.90;;;;;;;13.97;60.96;98295.63;5052457;28;20025;-50
2022/04/08 01:05:24;;;;;;;6.68;3.72;;;;;;;13.99;60.76;98297.00;5053024;28;20028;-51
2022/04/08 01:07:50;;;;;;;8.77;3.97;;;;;;;14.29;58.72;98300.84;5052803;28;20061;-48
2022/04/08 01:10:15;;;;;;;7.43;3.83;;;;;;;14.26;58.86;98304.06;5052941;28;20025;-48
2022/04/08 01:12:41;;;;;;;9.68;4.03;;;;;;;14.31;59.04;98311.28;5052687;28;20025;-48
2022/04/08 01:15:08;;;;;;;7.68;3.75;;;;;;;13.71;60.25;98322.25;5052992;28;20029;-49
2022/04/08 01:17:34;;;;;;;7.15;3.83;;;;;;;13.36;61.19;98317.47;5053134;28;20104;-51
2022/04/08 01:19:59;;;;;;;6.93;3.80;;;;;;;13.49;61.17;98317.81;5052731;28;20128;-48
2022/04/08 01:22:25;;;;;;;6.30;3.58;;;;;;;13.23;62.21;98324.81;5052875;28;20108;-50
2022/04/08 01:25:01;;;;;;;7.30;3.67;;;;;;;13.31;61.62;98307.56;5052884;28;20082;-50
2022/04/08 01:27:28;;;;;;;6.65;3.20;;;;;;;13.44;61.60;98317.81;5053201;28;20040;-48
2022/04/08 01:29:53;;;;;;;6.97;3.08;;;;;;;13.02;62.27;98321.19;5053001;28;20079;-48
2022/04/08 01:32:19;;;;;;;4.88;2.88;;;;;;;12.93;62.42;98332.56;5052611;28;20447;-48
2022/04/08 01:34:45;;;;;;;6.80;2.80;;;;;;;13.29;61.12;98331.81;5052223;28;20028;-50
2022/04/08 01:37:11;;;;;;;4.65;2.67;;;;;;;13.38;60.61;98328.69;5052335;28;20079;-51
2022/04/08 01:39:37;;;;;;;4.95;2.47;;;;;;;13.33;60.58;98334.81;5052586;28;20025;-48
2022/04/08 01:42:03;;;;;;;5.57;2.42;;;;;;;13.04;60.60;98323.56;5051971;28;20111;-51
2022/04/08 01:44:29;;;;;;;2.83;2.10;;;;;;;13.30;60.21;98330.78;5052221;28;20100;-50
2022/04/08 01:46:54;;;;;;;5.00;1.98;;;;;;;13.38;59.39;98331.38;5052309;28;20461;-50
2022/04/08 01:49:20;;;;;;;6.28;2.17;;;;;;;13.46;59.22;98329.03;5052200;28;20451;-51
2022/04/08 01:51:45;;;;;;;2.78;2.00;;;;;;;13.34;58.59;98338.28;5052134;28;20025;-50
2022/04/08 01:54:10;;;;;;;3.25;1.90;;;;;;;13.32;58.44;98335.88;5051828;28;20369;-49
2022/04/08 01:56:36;;;;;;;2.25;1.80;;;;;;;13.21;59.09;98336.81;5052084;28;20021;-50
2022/04/08 01:59:01;;;;;;;3.33;1.98;;;;;;;13.27;58.71;98328.59;5052243;28;20481;-49
2022/04/08 02:01:27;;;;;;;5.88;2.10;;;;;;;13.50;57.56;98334.69;5051841;28;20313;-48
2022/04/08 02:03:52;;;;;;;3.15;1.80;;;;;;;13.45;57.79;98335.44;5051620;28;20407;-48
2022/04/08 02:06:17;;;;;;;4.25;2.10;;;;;;;13.47;57.42;98330.63;5052124;28;20033;-48
2022/04/08 02:08:43;;;;;;;2.25;1.90;;;;;;;13.33;57.56;98332.16;5050440;28;20107;-47
2022/04/08 02:11:08;;;;;;;2.33;1.90;;;;;;;13.29;57.79;98331.03;5051811;28;20031;-49
2022/04/08 02:13:34;;;;;;;3.30;1.90;;;;;;;13.13;57.98;98334.63;5051152;28;20021;-48
2022/04/08 02:15:59;;;;;;;5.13;2.10;;;;;;;13.24;57.75;98329.09;5051718;28;20048;-48
2022/04/08 02:18:25;;;;;;;3.78;2.03;;;;;;;13.42;56.69;98335.13;5051635;28;20027;-48
2022/04/08 02:20:51;;;;;;;4.25;2.40;;;;;;;13.48;56.14;98334.94;5051757;28;20028;-48
2022/04/08 02:23:16;;;;;;;5.30;2.20;;;;;;;13.59;55.89;98337.66;5051418;28;20021;-48
2022/04/08 02:25:42;;;;;;;4.28;2.05;;;;;;;13.53;56.04;98346.72;5051398;28;20446;-48
2022/04/08 02:28:08;;;;;;;3.25;2.17;;;;;;;13.53;55.70;98341.38;5051361;28;20028;-48
2022/04/08 02:30:33;;;;;;;3.50;2.05;;;;;;;13.76;55.12;98342.84;5051756;28;20021;-50
2022/04/08 02:33:01;;;;;;;3.70;1.90;;;;;;;13.66;54.97;98344.38;5051616;28;20089;-49
2022/04/08 02:35:29;;;;;;;3.08;2.13;;;;;;;13.59;54.84;98351.03;5051137;28;20099;-50
2022/04/08 02:37:54;;;;;;;4.50;2.00;;;;;;;13.58;54.61;98341.41;5051495;28;20105;-50
2022/04/08 02:40:20;;;;;;;6.07;1.98;;;;;;;13.57;55.28;98343.25;5051623;28;20096;-37
2022/04/08 02:42:45;;;;;;;2.97;2.10;;;;;;;13.54;55.00;98353.69;5051492;28;20025;-37
2022/04/08 02:45:11;;;;;;;3.22;2.10;;;;;;;13.61;54.83;98357.75;5051164;28;20029;-37
2022/04/08 02:47:54;;;;;;;3.00;2.10;;;;;;;13.72;54.01;98355.13;5051434;28;20029;-37
2022/04/08 02:50:20;;;;;;;3.03;2.03;;;;;;;13.78;53.99;98352.22;5051015;28;20029;-38
2022/04/08 02:52:45;;;;;;;3.58;2.30;;;;;;;14.26;52.70;98366.41;5051288;28;20044;-37
2022/04/08 02:55:10;;;;;;;3.05;2.30;;;;;;;14.23;52.54;98366.91;5050776;28;20027;-38
2022/04/08 02:57:44;;;;;;;4.50;2.15;;;;;;;13.98;52.91;98362.25;5051006;28;20082;-37
2022/04/08 03:00:18;;;;;;;3.88;2.40;;;;;;;14.34;52.17;98370.44;5051333;28;20097;-37
2022/04/08 03:02:46;;;;;;;7.05;2.58;;;;;;;14.21;52.48;98366.38;5051092;28;20107;-37
2022/04/08 03:05:12;;;;;;;2.92;2.20;;;;;;;14.03;53.12;98367.63;5051241;28;20099;-37
2022/04/08 03:07:37;;;;;;;3.42;2.33;;;;;;;14.31;52.05;98370.16;5050198;28;20104;-37
2022/04/08 03:10:04;;;;;;;3.63;2.30;;;;;;;14.23;52.36;98384.84;5050897;28;20520;-37
2022/04/08 03:12:30;;;;;;;5.15;2.30;;;;;;;14.18;52.92;98380.25;5050719;28;20027;-38
2022/04/08 03:14:56;;;;;;;4.82;2.45;;;;;;;14.42;52.46;98388.66;5050684;28;20090;-37
2022/04/08 03:17:22;;;;;;;5.80;2.90;;;;;;;14.26;52.26;98382.44;5050511;28;20025;-38
2022/04/08 03:19:47;;;;;;;5.15;2.50;;;;;;;14.16;52.39;98393.09;5050898;28;20423;-38
2022/04/08 03:22:13;;;;;;;2.95;2.20;;;;;;;14.17;52.75;98396.59;5050934;28;20024;-38
2022/04/08 03:24:38;;;;;;;4.65;2.50;;;;;;;14.01;52.80;98387.66;5050718;28;20013;-38
2022/04/08 03:27:04;;;;;;;3.05;2.30;;;;;;;14.11;52.49;98406.44;5050559;28;20036;-37
2022/04/08 03:29:29;;;;;;;4.10;2.03;;;;;;;13.82;52.89;98387.25;5050842;28;20028;-38
2022/04/08 03:31:55;;;;;;;4.70;2.20;;;;;;;13.85;53.31;98398.25;5050573;28;20507;-37
2022/04/08 03:34:20;;;;;;;4.05;2.30;;;;;;;13.82;53.11;98400.63;5050732;28;20036;-37
2022/04/08 03:36:47;;;;;;;3.20;2.60;;;;;;;13.81;53.26;98397.16;5050783;28;20076;-37
2022/04/08 03:39:13;;;;;;;2.92;2.28;;;;;;;13.82;52.75;98401.47;5050251;28;20541;-37
2022/04/08 03:41:42;;;;;;;3.00;2.10;;;;;;;13.91;52.82;98406.31;5050588;28;20029;-37
2022/04/08 03:44:07;;;;;;;7.55;3.85;;;;;;;13.60;53.42;98406.09;5050404;28;20114;-38
2022/04/08 03:46:33;;;;;;;5.97;3.83;;;;;;;13.69;53.61;98413.38;5050370;28;20104;-37
2022/04/08 03:48:58;;;;;;;14.93;8.23;;;;;;;13.62;54.17;98415.47;5050410;28;20037;-38
2022/04/08 03:51:24;;;;;;;51.63;27.02;;;;;;;13.65;54.05;98425.66;5050802;28;20024;-39
2022/04/08 03:53:49;;;;;;;5.00;2.55;;;;;;;13.71;53.96;98423.00;5050198;28;20049;-39
2022/04/08 03:56:15;;;;;;;4.03;2.35;;;;;;;13.77;53.45;98424.69;5050237;28;20028;-37
2022/04/08 03:58:40;;;;;;;3.03;2.30;;;;;;;13.74;53.12;98435.88;5050518;28;20032;-37
2022/04/08 04:01:06;;;;;;;6.68;2.80;;;;;;;13.89;53.16;98427.97;5048547;28;20021;-37
2022/04/08 04:03:31;;;;;;;7.03;2.88;;;;;;;13.87;53.16;98441.59;5044207;28;20025;-38
2022/04/08 04:05:56;;;;;;;5.72;2.47;;;;;;;13.89;52.59;98439.47;5033529;28;20032;-37
2022/04/08 04:08:22;;;;;;;3.05;2.28;;;;;;;13.88;52.92;98448.56;5029944;28;20053;-37
2022/04/08 04:10:48;;;;;;;3.47;2.38;;;;;;;14.36;51.51;98440.56;5028320;28;20029;-37
2022/04/08 04:13:14;;;;;;;5.03;2.42;;;;;;;14.12;52.02;98442.81;5044157;28;20021;-37
2022/04/08 04:15:40;;;;;;;4.88;2.20;;;;;;;14.25;51.47;98447.72;5049863;28;20029;-38
2022/04/08 04:18:06;;;;;;;5.63;2.70;;;;;;;14.23;51.61;98451.72;5049688;28;20033;-38
2022/04/08 04:20:32;;;;;;;7.05;2.92;;;;;;;14.67;50.61;98454.13;5050985;28;20021;-38
2022/04/08 04:22:57;;;;;;;4.95;2.45;;;;;;;14.81;51.33;98457.94;5053069;28;20021;-37
2022/04/08 04:25:23;;;;;;;5.50;2.60;;;;;;;15.49;52.05;98465.03;5053071;28;20055;-38
2022/04/08 04:27:48;;;;;;;7.95;3.00;;;;;;;16.08;57.35;98481.72;5053054;28;20044;-37
2022/04/08 04:30:14;;;;;;;5.13;2.55;;;;;;;16.36;47.51;98472.28;5038341;28;20030;-37
2022/04/08 04:32:39;;;;;;;4.88;2.80;;;;;;;16.35;47.24;98484.06;5033119;28;20111;-38
2022/04/08 04:35:08;;;;;;;4.15;2.53;;;;;;;15.98;47.35;98485.22;5031654;28;20083;-37
2022/04/08 04:37:37;;;;;;;5.55;2.40;;;;;;;15.86;48.35;98485.50;5032551;28;20094;-38
2022/04/08 04:40:04;;;;;;;3.73;2.30;;;;;;;16.14;47.07;98491.34;5032200;28;20033;-38
2022/04/08 04:42:29;;;;;;;6.05;2.47;;;;;;;16.17;46.85;98496.19;5032880;28;20326;-38
2022/04/08 04:44:56;;;;;;;3.42;2.20;;;;;;;16.11;46.93;98497.28;5032449;28;20025;-37
2022/04/08 04:47:22;;;;;;;6.28;2.42;;;;;;;16.58;45.84;98504.16;5030742;28;20098;-38
2022/04/08 04:49:47;;;;;;;6.22;2.28;;;;;;;16.85;44.56;98511.91;5030745;28;20108;-38
2022/04/08 04:52:12;;;;;;;4.68;2.45;;;;;;;16.29;45.64;98517.38;5030700;28;20087;-37
2022/04/08 04:54:38;;;;;;;4.70;2.40;;;;;;;16.60;45.27;98512.75;5030757;28;20644;-38
2022/04/08 04:57:04;;;;;;;4.38;2.35;;;;;;;16.74;44.79;98519.16;5030528;28;20036;-37
2022/04/08 04:59:29;;;;;;;5.80;2.50;;;;;;;17.10;43.97;98535.19;5031038;28;20025;-39
2022/04/08 05:01:55;;;;;;;8.02;3.15;;;;;;;16.95;44.34;98537.94;5031531;28;20089;-38
2022/04/08 05:04:20;;;;;;;11.18;4.95;;;;;;;16.92;44.80;98533.91;5031686;28;20380;-38
2022/04/08 05:06:46;;;;;;;7.22;4.35;;;;;;;16.89;44.92;98533.66;5032594;28;20516;-37
2022/04/08 05:09:11;;;;;;;6.90;3.28;;;;;;;16.85;44.10;98540.63;5032564;28;20025;-37
2022/04/08 05:11:37;;;;;;;7.97;3.13;;;;;;;17.20;43.77;98521.69;5033277;28;20036;-37
2022/04/08 05:14:02;;;;;;;4.15;2.20;;;;;;;17.81;42.88;98545.81;5051322;28;20021;-39
2022/04/08 05:16:28;;;;;;;7.75;2.47;;;;;;;17.88;42.07;98557.09;5052077;28;20032;-37
2022/04/08 05:18:54;;;;;;;3.47;2.05;;;;;;;18.03;42.41;98565.06;5052387;28;20028;-39
2022/04/08 05:21:20;;;;;;;6.25;2.30;;;;;;;18.44;41.56;98566.59;5052377;28;20036;-38
2022/04/08 05:23:45;;;;;;;3.28;2.25;;;;;;;17.91;42.38;98573.47;5052068;28;20140;-38
2022/04/08 05:26:11;;;;;;;4.72;2.22;;;;;;;17.85;42.67;98576.50;5052176;28;20031;-38
2022/04/08 05:28:37;;;;;;;4.80;2.20;;;;;;;18.03;41.60;98577.69;5052086;28;20517;-37
2022/04/08 05:31:02;;;;;;;3.63;2.50;;;;;;;17.94;42.39;98581.00;5051181;28;20033;-37
2022/04/08 05:33:27;;;;;;;6.65;2.10;;;;;;;17.62;42.34;98578.75;5051310;28;20032;-37
2022/04/08 05:35:53;;;;;;;5.57;2.60;;;;;;;18.45;41.92;98574.41;5051276;28;20406;-38
2022/04/08 05:38:19;;;;;;;6.10;2.30;;;;;;;18.91;39.80;98583.94;5051820;28;20024;-38
2022/04/08 05:40:44;;;;;;;5.35;2.35;;;;;;;19.18;39.68;98591.44;5051741;28;20465;-37
2022/04/08 05:43:10;;;;;;;6.63;2.08;;;;;;;19.98;38.34;98591.78;5051949;28;20048;-38
2022/04/08 05:45:36;;;;;;;3.78;2.00;;;;;;;19.75;38.41;98580.75;5051766;28;20048;-37
2022/04/08 05:48:05;;;;;;;4.95;2.47;;;;;;;19.38;39.04;98593.09;5051763;28;20036;-38
2022/04/08 05:50:31;;;;;;;3.33;2.17;;;;;;;19.27;39.10;98595.13;5051723;28;20025;-37
2022/04/08 05:52:57;;;;;;;6.22;2.53;;;;;;;19.28;39.29;98604.81;5051075;28;20029;-38
2022/04/08 05:55:23;;;;;;;6.15;3.38;;;;;;;19.51;38.38;98600.50;5051288;28;20029;-37
2022/04/08 05:57:48;;;;;;;7.25;3.40;;;;;;;19.51;38.56;98618.56;5050873;28;20109;-38
2022/04/08 06:00:15;;;;;;;4.85;1.90;;;;;;;20.13;36.69;98613.13;5050937;28;20425;-38
2022/04/08 06:02:43;;;;;;;4.28;2.20;;;;;;;20.61;35.92;98617.53;5051324;28;20025;-37
2022/04/08 06:05:09;;;;;;;7.82;3.20;;;;;;;20.65;35.06;98611.22;5051225;28;20029;-37
2022/04/08 06:07:35;;;;;;;3.60;1.90;;;;;;;20.06;36.02;98629.69;5050748;28;20075;-37
2022/04/08 06:10:02;;;;;;;9.32;2.30;;;;;;;20.38;35.75;98632.75;5051207;28;20142;-38
2022/04/08 06:12:28;;;;;;;4.25;1.90;;;;;;;21.12;34.97;98632.81;5051401;28;20036;-36
2022/04/08 06:14:53;;;;;;;2.63;1.88;;;;;;;21.39;33.94;98640.13;5051319;28;20032;-37
2022/04/08 06:17:19;;;;;;;4.13;1.70;;;;;;;20.29;34.67;98636.09;5051081;28;20040;-37
2022/04/08 06:19:46;;;;;;;3.72;1.70;;;;;;;20.42;34.31;98636.44;5051058;28;20032;-38
2022/04/08 06:22:12;;;;;;;4.22;1.63;;;;;;;20.15;34.60;98646.06;5050958;28;20029;-38
2022/04/08 06:24:39;;;;;;;2.88;1.48;;;;;;;20.31;34.55;98643.91;5050862;28;20021;-37
2022/04/08 06:27:04;;;;;;;3.50;1.67;;;;;;;21.03;34.32;98646.22;5050931;28;20048;-38
2022/04/08 06:29:30;;;;;;;6.53;2.08;;;;;;;21.07;33.81;98654.53;5050746;28;20118;-38
2022/04/08 06:31:55;;;;;;;2.47;1.80;;;;;;;21.32;33.29;98655.94;5051129;28;20044;-39
2022/04/08 06:34:21;;;;;;;3.90;1.90;;;;;;;21.49;32.42;98655.38;5050957;28;20029;-36
2022/04/08 06:36:46;;;;;;;2.72;1.75;;;;;;;21.59;32.51;98648.94;5050613;28;20033;-37
2022/04/08 06:39:12;;;;;;;2.78;1.65;;;;;;;21.16;33.49;98650.03;5050837;28;20110;-38
2022/04/08 06:41:37;;;;;;;4.45;1.50;;;;;;;21.22;32.90;98648.84;5051055;28;20035;-37
2022/04/08 06:44:03;;;;;;;3.75;1.70;;;;;;;21.77;32.51;98650.72;5050010;28;20115;-38
2022/04/08 06:46:28;;;;;;;5.43;1.98;;;;;;;21.72;32.53;98661.66;5050796;28;20061;-38
2022/04/08 06:48:54;;;;;;;3.05;1.90;;;;;;;21.97;32.06;98665.75;5050939;28;20438;-37
2022/04/08 06:51:20;;;;;;;5.38;1.92;;;;;;;21.89;31.72;98665.66;5050123;28;20158;-38
2022/04/08 06:53:45;;;;;;;4.78;1.77;;;;;;;21.98;32.02;98677.38;5049616;28;20485;-36
2022/04/08 06:56:11;;;;;;;4.95;1.88;;;;;;;22.32;32.13;98678.81;5050318;28;20477;-38
2022/04/08 06:58:39;;;;;;;9.73;2.05;;;;;;;22.28;31.85;98675.13;5050293;28;20028;-38
2022/04/08 07:01:06;;;;;;;3.03;1.90;;;;;;;22.77;31.13;98674.19;5050056;28;20048;-38
2022/04/08 07:03:31;;;;;;;3.50;2.22;;;;;;;23.30;30.19;98680.69;5049810;28;20445;-38
2022/04/08 07:05:57;;;;;;;2.20;1.73;;;;;;;23.02;30.27;98686.28;5050587;28;20031;-38
2022/04/08 07:08:22;;;;;;;5.32;1.90;;;;;;;22.96;30.33;98694.84;5050311;28;20489;-38
2022/04/08 07:10:48;;;;;;;6.88;1.83;;;;;;;23.11;30.11;98694.47;5050196;28;20507;-38
2022/04/08 07:13:13;;;;;;;7.28;1.90;;;;;;;23.37;29.26;98683.75;5049512;28;20033;-38
2022/04/08 07:15:39;;;;;;;3.05;2.00;;;;;;;23.45;29.62;98693.03;5050366;28;20032;-38
2022/04/08 07:18:04;;;;;;;3.05;1.83;;;;;;;23.89;29.67;98690.47;5050328;28;20104;-38
2022/04/08 07:20:30;;;;;;;2.85;1.80;;;;;;;23.03;30.25;98698.75;5050014;28;20425;-38
2022/04/08 07:23:01;;;;;;;4.22;1.70;;;;;;;23.14;29.77;98691.16;5049663;28;20040;-38
2022/04/08 07:25:27;;;;;;;5.43;1.75;;;;;;;23.21;29.85;98702.38;5050392;28;20437;-38
2022/04/08 07:27:56;;;;;;;3.55;1.75;;;;;;;23.43;30.02;98708.84;5050559;28;20037;-37
2022/04/08 07:30:22;;;;;;;4.20;2.08;;;;;;;24.19;28.94;98707.75;5050222;28;20093;-38
2022/04/08 07:32:52;;;;;;;2.30;1.60;;;;;;;23.35;29.39;98709.59;5049768;28;20381;-37
2022/04/08 07:35:18;;;;;;;6.95;2.10;;;;;;;23.54;29.51;98720.22;5049830;28;20158;-38
2022/04/08 07:37:43;;;;;;;6.25;1.70;;;;;;;23.13;29.46;98715.88;5049886;28;20029;-38
2022/04/08 07:40:11;;;;;;;4.65;1.90;;;;;;;24.19;28.81;98714.00;5049908;28;20032;-38
2022/04/08 07:42:37;;;;;;;3.00;1.90;;;;;;;24.68;28.18;98718.50;5050163;28;20051;-38
2022/04/08 07:45:04;;;;;;;5.63;1.90;;;;;;;24.55;28.12;98696.59;5049669;28;20052;-37
2022/04/08 07:47:30;;;;;;;4.93;1.90;;;;;;;24.20;28.88;98710.16;5049591;28;20033;-39
2022/04/08 07:50:00;;;;;;;6.35;2.30;;;;;;;24.77;28.00;98716.56;5049694;28;20492;-37
2022/04/08 07:52:27;;;;;;;2.13;1.80;;;;;;;24.83;28.13;98712.56;5049924;28;20040;-37
2022/04/08 07:54:54;;;;;;;3.42;1.80;;;;;;;25.24;27.26;98707.66;5051426;28;20032;-36
2022/04/08 07:57:19;;;;;;;4.50;1.80;;;;;;;26.02;26.44;98717.41;5053951;28;20052;-38
2022/04/08 07:59:45;;;;;;;4.35;1.95;;;;;;;25.59;26.87;98723.84;5053521;28;20161;-37
2022/04/08 08:02:10;;;;;;;3.55;1.80;;;;;;;25.98;26.67;98719.97;5053679;28;20029;-38
2022/04/08 08:04:37;;;;;;;5.88;1.95;;;;;;;25.78;26.73;98721.53;5053690;28;20552;-37
2022/04/08 08:07:02;;;;;;;2.65;1.80;;;;;;;25.92;26.18;98730.28;5053545;28;20041;-38
2022/04/08 08:09:28;;;;;;;5.97;2.38;;;;;;;25.44;26.69;98736.13;5053785;28;20566;-38
2022/04/08 08:11:53;;;;;;;4.38;2.50;;;;;;;24.72;26.79;98730.34;5053677;28;20027;-37
2022/04/08 08:14:19;;;;;;;5.60;2.20;;;;;;;25.59;26.74;98737.47;5053507;28;20025;-37
2022/04/08 08:16:44;;;;;;;3.75;2.15;;;;;;;25.85;26.51;98750.97;5052986;28;20028;-37
2022/04/08 08:19:11;;;;;;;4.20;1.92;;;;;;;26.80;25.67;98754.19;5053673;28;20048;-37
2022/04/08 08:21:37;;;;;;;7.22;2.10;;;;;;;26.93;25.10;98764.00;5053496;28;20029;-37
2022/04/08 08:24:02;;;;;;;7.32;2.17;;;;;;;25.72;25.77;98767.22;5053745;28;20098;-37
2022/04/08 08:26:29;;;;;;;4.82;2.30;;;;;;;24.78;27.41;98776.06;5053006;28;20445;-37
2022/04/08 08:28:55;;;;;;;7.15;2.25;;;;;;;25.47;26.38;98773.56;5052859;28;20082;-38
2022/04/08 08:31:22;;;;;;;5.80;2.10;;;;;;;25.42;26.28;98777.28;5053047;28;20025;-38
2022/04/08 08:33:47;;;;;;;2.35;1.92;;;;;;;25.25;26.36;98780.06;5053368;28;20024;-38
2022/04/08 08:36:13;;;;;;;4.40;2.10;;;;;;;25.07;26.36;98788.22;5053364;28;20109;-37
2022/04/08 08:38:39;;;;;;;2.65;2.10;;;;;;;25.43;25.95;98773.41;5052684;28;20053;-37
2022/04/08 08:41:06;;;;;;;5.28;2.00;;;;;;;26.44;25.11;98782.84;5053021;28;20504;-37
2022/04/08 08:43:32;;;;;;;2.83;2.05;;;;;;;26.26;25.38;98774.00;5052912;28;20117;-39
2022/04/08 08:45:57;;;;;;;4.55;2.08;;;;;;;26.05;25.29;98763.09;5053189;28;20090;-40
2022/04/08 08:48:23;;;;;;;4.55;2.17;;;;;;;27.07;24.45;98764.53;5052989;28;20028;-37
2022/04/08 08:50:52;;;;;;;5.30;2.00;;;;;;;26.49;24.50;98756.19;5052867;28;20461;-38
2022/04/08 08:53:19;;;;;;;5.20;2.25;;;;;;;26.62;24.57;98748.88;5052412;28;20025;-38
2022/04/08 08:55:50;;;;;;;6.65;2.22;;;;;;;26.48;24.67;98749.16;5052588;28;20028;-38
2022/04/08 08:58:16;;;;;;;6.57;2.13;;;;;;;24.89;26.35;98754.00;5052254;28;20021;-38
2022/04/08 09:00:42;;;;;;;2.70;2.10;;;;;;;25.22;26.07;98750.72;5052557;28;20112;-39
2022/04/08 09:03:09;;;;;;;5.18;2.15;;;;;;;25.26;26.11;98754.41;5052517;28;20036;-38
2022/04/08 09:05:42;;;;;;;3.95;2.30;;;;;;;26.18;25.20;98740.22;5051930;28;20029;-38
2022/04/08 09:08:08;;;;;;;4.35;2.05;;;;;;;26.29;24.79;98744.16;5052288;28;20071;-38
2022/04/08 09:10:34;;;;;;;3.03;2.33;;;;;;;26.18;24.12;98736.69;5052256;28;20024;-37
2022/04/08 09:13:00;;;;;;;7.57;1.98;;;;;;;25.36;24.86;98743.97;5051817;28;20037;-35
2022/04/08 09:15:26;;;;;;;4.85;2.30;;;;;;;25.17;25.37;98738.09;5052441;28;20151;-38
2022/04/08 09:17:52;;;;;;;3.25;2.20;;;;;;;25.54;24.84;98741.19;5052257;28;20048;-39
2022/04/08 09:20:19;;;;;;;4.75;2.10;;;;;;;25.66;24.46;98740.50;5052082;28;20570;-37
2022/04/08 09:22:54;;;;;;;4.22;2.10;;;;;;;26.57;23.87;98743.59;5052401;28;20034;-37
2022/04/08 09:25:24;;;;;;;3.00;2.20;;;;;;;26.74;23.60;98750.88;5052077;28;20082;-37
2022/04/08 09:27:49;;;;;;;2.30;2.00;;;;;;;26.77;23.60;98761.13;5051702;28;20488;-37
2022/04/08 09:30:19;;;;;;;4.07;2.10;;;;;;;27.27;22.54;98767.56;5051526;28;20033;-38
2022/04/08 09:32:44;;;;;;;3.28;2.10;;;;;;;26.62;23.37;98762.53;5051414;28;20036;-38
2022/04/08 09:35:17;;;;;;;2.85;2.28;;;;;;;26.69;23.23;98754.63;5052129;28;20024;-37
2022/04/08 09:37:43;;;;;;;2.53;2.13;;;;;;;27.10;23.00;98766.56;5052022;28;20137;-37
2022/04/08 09:40:09;;;;;;;5.38;2.33;;;;;;;26.68;22.24;98752.22;5051939;28;20055;-37
2022/04/08 09:42:45;;;;;;;4.13;2.20;;;;;;;26.49;22.90;98745.28;5051914;28;20025;-36
2022/04/08 09:45:12;;;;;;;5.00;2.28;;;;;;;26.92;22.20;98752.31;5051909;28;20025;-38
2022/04/08 09:47:38;;;;;;;5.68;2.42;;;;;;;26.58;21.89;98747.94;5051614;28;20108;-38
2022/04/08 09:50:05;;;;;;;4.53;2.20;;;;;;;26.30;22.19;98747.66;5050243;28;20112;-37
2022/04/08 09:52:31;;;;;;;3.53;2.17;;;;;;;26.07;22.98;98761.63;5051335;28;20040;-37
2022/04/08 09:55:00;;;;;;;3.30;1.98;;;;;;;26.02;22.59;98750.91;5051261;28;20021;-38
2022/04/08 09:57:32;;;;;;;2.80;1.87;;;;;;;25.88;22.74;98740.22;5051123;28;20025;-39
2022/04/08 10:00:00;;;;;;;4.93;1.88;;;;;;;25.54;22.41;98741.19;5051316;28;20264;-37
2022/04/08 10:02:28;;;;;;;4.88;2.05;;;;;;;25.77;22.17;98740.91;5051112;28;20402;-38
2022/04/08 10:04:55;;;;;;;3.20;2.10;;;;;;;25.46;22.13;98733.88;5051233;28;20025;-38
2022/04/08 10:07:21;;;;;;;2.58;2.10;;;;;;;25.96;22.18;98744.03;5049452;28;20068;-38
2022/04/08 10:10:11;;;;;;;2.20;1.88;;;;;;;25.92;21.94;98740.38;5051338;28;20495;-37
2022/04/08 10:13:19;;;;;;;3.30;2.05;;;;;;;26.21;21.89;98755.13;5051218;28;20206;-39
2022/04/08 10:15:53;;;;;;;2.25;1.92;;;;;;;26.37;21.83;98744.41;5045600;28;20587;-38
2022/04/08 10:18:18;;;;;;;4.68;2.00;;;;;;;26.74;21.35;98756.31;5049601;28;20123;-38
2022/04/08 10:20:45;;;;;;;2.15;1.85;;;;;;;26.48;21.83;98754.59;5051222;28;20029;-36
2022/04/08 10:23:12;;;;;;;2.75;2.17;;;;;;;27.39;20.91;98761.31;5051351;28;20547;-37
2022/04/08 10:25:43;;;;;;;5.43;2.30;;;;;;;27.22;21.31;98756.81;5050959;28;20104;-37
2022/04/08 10:28:10;;;;;;;5.30;2.20;;;;;;;27.03;21.18;98760.84;5051027;28;20543;-38
2022/04/08 10:30:47;;;;;;;3.13;1.98;;;;;;;27.08;20.55;98762.59;5050851;28;20029;-37
2022/04/08 10:33:22;;;;;;;3.80;2.22;;;;;;;27.07;20.78;98763.72;5050367;28;20047;-38
2022/04/08 10:35:53;;;;;;;2.40;1.80;;;;;;;27.22;20.70;98759.53;5050463;28;20070;-37
2022/04/08 10:38:19;;;;;;;3.42;1.80;;;;;;;27.23;21.23;98740.09;5050321;28;20054;-38
2022/04/08 10:40:55;;;;;;;4.60;1.80;;;;;;;27.55;20.08;98756.78;5050493;28;20032;-38
2022/04/08 10:43:22;;;;;;;3.80;1.90;;;;;;;26.87;21.25;98751.72;5050253;28;20013;-38
2022/04/08 10:45:56;;;;;;;4.40;1.77;;;;;;;27.30;21.11;98751.28;5050198;28;20374;-38
2022/04/08 10:48:23;;;;;;;2.33;1.70;;;;;;;27.77;20.68;98749.28;5050445;28;20100;-38
2022/04/08 10:50:50;;;;;;;2.95;2.00;;;;;;;28.78;20.17;98747.59;5050388;28;20063;-38
2022/04/08 10:53:22;;;;;;;2.50;1.63;;;;;;;28.82;19.39;98745.75;5050572;28;20021;-38
2022/04/08 10:55:55;;;;;;;6.20;1.88;;;;;;;28.39;19.28;98744.53;5050252;28;20025;-38
2022/04/08 10:58:31;;;;;;;4.15;1.88;;;;;;;28.25;19.28;98747.63;5050603;28;20056;-38
2022/04/08 11:00:56;;;;;;;4.88;1.80;;;;;;;28.31;19.17;98729.88;5050294;28;20044;-38
2022/04/08 11:03:28;;;;;;;3.17;1.88;;;;;;;28.14;19.40;98741.88;5050213;28;20021;-38
2022/04/08 11:05:54;;;;;;;2.65;1.77;;;;;;;28.20;19.28;98745.16;5050359;28;20033;-38
2022/04/08 11:08:24;;;;;;;1.58;1.45;;;;;;;28.20;19.61;98736.97;5050038;28;20049;-37
2022/04/08 11:10:59;;;;;;;4.80;1.75;;;;;;;28.99;19.39;98731.75;5050072;28;20021;-38
2022/04/08 11:13:25;;;;;;;2.90;2.00;;;;;;;29.08;19.07;98725.34;5049544;28;20047;-38
2022/04/08 11:15:50;;;;;;;4.78;3.60;;;;;;;29.20;18.68;98730.75;5049841;28;20037;-38
2022/04/08 11:18:17;;;;;;;5.22;3.08;;;;;;;28.47;18.82;98722.50;5049652;28;20492;-37
2022/04/08 11:20:48;;;;;;;4.97;2.70;;;;;;;28.60;18.74;98717.81;5049602;28;20028;-37
2022/04/08 11:23:14;;;;;;;5.50;2.60;;;;;;;28.45;19.25;98724.00;5049886;28;20558;-38
2022/04/08 11:25:39;;;;;;;5.22;2.58;;;;;;;28.72;18.61;98716.16;5048513;28;20060;-36
2022/04/08 11:28:10;;;;;;;7.50;3.00;;;;;;;28.99;19.02;98723.53;5049761;28;20028;-38
2022/04/08 11:30:40;;;;;;;8.90;2.28;;;;;;;27.81;19.37;98715.44;5055995;28;20027;-37
2022/04/08 11:33:16;;;;;;;3.30;1.80;;;;;;;28.32;19.10;98714.25;5056505;28;20063;-37